createdAt,value
2018-06-11T00:02:52.708Z,16.61
2018-06-11T00:07:48.467Z,16.47
2018-06-11T00:12:43.778Z,16.36
2018-06-11T00:17:40.795Z,16.36
2018-06-11T00:22:37.079Z,16.33
2018-06-11T00:27:32.535Z,16.33
2018-06-11T00:32:29.372Z,16.29
2018-06-11T00:37:24.859Z,16.32
2018-06-11T00:42:20.736Z,16.41
2018-06-11T00:47:17.836Z,16.42
2018-06-11T00:52:13.326Z,16.68
2018-06-11T00:57:09.243Z,16.46
2018-06-11T01:02:05.110Z,16.28
2018-06-11T01:07:02.195Z,16.17
2018-06-11T01:11:57.697Z,16.05
2018-06-11T01:16:54.230Z,16.09
2018-06-11T01:21:50.831Z,16.16
2018-06-11T01:26:46.307Z,16.15
2018-06-11T01:31:42.024Z,15.94
2018-06-11T01:36:38.030Z,15.88
2018-06-11T01:41:35.039Z,15.75
2018-06-11T01:46:30.311Z,15.88
2018-06-11T01:51:26.279Z,15.77
2018-06-11T01:56:23.058Z,15.72
2018-06-11T02:01:19.589Z,15.62
2018-06-11T02:06:15.082Z,15.68
2018-06-11T02:11:10.973Z,15.77
2018-06-11T02:16:07.971Z,15.67
2018-06-11T02:21:04.440Z,15.62
2018-06-11T02:26:00.203Z,15.76
2018-06-11T02:30:57.282Z,15.57
2018-06-11T02:35:52.889Z,15.68
2018-06-11T02:40:49.714Z,15.83
2018-06-11T02:45:46.686Z,15.83
2018-06-11T02:50:42.312Z,15.91
2018-06-11T02:55:38.083Z,15.75
2018-06-11T03:00:35.394Z,15.82
2018-06-11T03:05:31.000Z,15.86
2018-06-11T03:10:26.846Z,15.79
2018-06-11T03:15:22.904Z,15.82
2018-06-11T03:20:18.557Z,15.76
2018-06-11T03:25:14.782Z,15.77
2018-06-11T03:30:11.577Z,15.86
2018-06-11T03:35:07.149Z,15.98
2018-06-11T03:40:04.159Z,16.00
2018-06-11T03:45:01.197Z,16.09
2018-06-11T03:49:56.768Z,16.09
2018-06-11T03:54:52.868Z,16.01
2018-06-11T03:59:49.742Z,15.76
2018-06-11T04:04:45.234Z,15.77
2018-06-11T04:09:41.541Z,15.75
2018-06-11T04:14:37.850Z,15.64
2018-06-11T04:19:33.931Z,15.55
2018-06-11T04:24:30.817Z,15.49
2018-06-11T04:29:27.563Z,15.61
2018-06-11T04:34:23.288Z,15.44
2018-06-11T04:39:19.542Z,15.76
2018-06-11T04:44:15.388Z,15.94
2018-06-11T04:49:11.526Z,15.67
2018-06-11T04:54:07.207Z,15.55
2018-06-11T04:59:03.022Z,15.49
2018-06-11T05:03:58.659Z,15.25
2018-06-11T05:08:54.530Z,15.25
2018-06-11T05:13:51.691Z,15.22
2018-06-11T05:18:47.543Z,15.37
2018-06-11T05:23:44.500Z,15.43
2018-06-11T05:28:40.282Z,15.28
2018-06-11T05:33:36.542Z,15.25
2018-06-11T05:38:32.412Z,15.21
2018-06-11T05:43:28.127Z,15.35
2018-06-11T05:48:24.147Z,15.64
2018-06-11T05:53:20.337Z,15.75
2018-06-11T05:58:17.267Z,15.64
2018-06-11T06:03:13.686Z,15.97
2018-06-11T06:08:10.892Z,16.28
2018-06-11T06:13:06.301Z,15.84
2018-06-11T06:18:02.204Z,15.75
2018-06-11T06:22:59.285Z,15.95
2018-06-11T06:27:54.992Z,15.88
2018-06-11T06:32:50.648Z,15.86
2018-06-11T06:37:48.215Z,16.01
2018-06-11T06:42:44.622Z,16.08
2018-06-11T06:47:40.490Z,16.41
2018-06-11T06:52:36.524Z,16.23
2018-06-11T06:57:32.304Z,16.31
2018-06-11T07:02:28.990Z,16.24
2018-06-11T07:07:25.363Z,16.08
2018-06-11T07:12:21.367Z,16.39
2018-06-11T07:17:17.448Z,16.35
2018-06-11T07:22:13.507Z,16.69
2018-06-11T07:27:11.059Z,16.91
2018-06-11T07:32:06.860Z,17.22
2018-06-11T07:37:02.832Z,17.16
2018-06-11T07:42:00.228Z,17.76
2018-06-11T07:46:56.608Z,18.47
2018-06-11T07:51:55.196Z,19.55
2018-06-11T07:56:52.627Z,20.13
2018-06-11T08:01:49.862Z,21.14
2018-06-11T08:06:48.055Z,20.80
2018-06-11T08:11:45.884Z,22.44
2018-06-11T08:16:43.717Z,22.83
2018-06-11T08:21:39.336Z,20.99
2018-06-11T08:26:35.454Z,21.76
2018-06-11T08:31:31.843Z,21.45
2018-06-11T08:36:28.977Z,21.25
2018-06-11T08:41:24.249Z,20.93
2018-06-11T08:46:19.901Z,20.40
2018-06-11T08:51:15.988Z,21.58
2018-06-11T08:56:13.046Z,23.02
2018-06-11T09:01:10.311Z,22.69
2018-06-11T09:06:07.190Z,21.72
2018-06-11T09:11:03.025Z,21.69
2018-06-11T09:16:00.188Z,22.90
2018-06-11T09:20:56.179Z,22.60
2018-06-11T09:25:53.352Z,22.32
2018-06-11T09:30:50.648Z,22.59
2018-06-11T09:35:46.115Z,22.65
2018-06-11T09:40:41.885Z,21.69
2018-06-11T09:45:37.360Z,21.70
2018-06-11T09:50:31.478Z,22.26
2018-06-11T09:55:27.085Z,21.67
2018-06-11T10:00:22.903Z,21.69
2018-06-11T10:05:19.359Z,21.73
2018-06-11T10:10:16.681Z,21.62
2018-06-11T10:15:12.975Z,22.48
2018-06-11T10:20:09.546Z,22.47
2018-06-11T10:25:05.472Z,22.47
2018-06-11T10:30:01.615Z,22.93
2018-06-11T10:34:59.478Z,23.69
2018-06-11T10:39:56.749Z,22.87
2018-06-11T10:44:53.701Z,22.75
2018-06-11T10:49:49.527Z,22.53
2018-06-11T10:54:44.734Z,22.44
2018-06-11T10:59:40.482Z,23.05
2018-06-11T11:04:37.044Z,23.55
2018-06-11T11:09:35.829Z,23.40
2018-06-11T11:14:32.082Z,23.24
2018-06-11T11:19:29.714Z,23.77
2018-06-11T11:24:26.047Z,22.93
2018-06-11T11:29:21.817Z,23.15
2018-06-11T11:34:19.186Z,24.48
2018-06-11T11:39:15.621Z,24.95
2018-06-11T11:44:12.061Z,24.13
2018-06-11T11:49:08.086Z,24.91
2018-06-11T11:54:05.715Z,24.98
2018-06-11T11:59:01.917Z,25.06
2018-06-11T12:03:58.251Z,23.92
2018-06-11T12:08:53.875Z,24.70
2018-06-11T12:13:49.926Z,25.62
2018-06-11T12:18:46.497Z,24.80
2018-06-11T12:23:42.377Z,24.74
2018-06-11T12:28:38.750Z,25.23
2018-06-11T12:33:34.734Z,24.65
2018-06-11T12:38:31.750Z,25.04
2018-06-11T12:43:28.271Z,25.87
2018-06-11T12:48:24.446Z,26.06
2018-06-11T12:53:20.208Z,25.07
2018-06-11T12:58:15.685Z,25.47
2018-06-11T13:03:12.774Z,24.99
2018-06-11T13:08:08.064Z,25.46
2018-06-11T13:13:03.966Z,25.69
2018-06-11T13:17:59.811Z,25.54
2018-06-11T13:22:55.745Z,24.96
2018-06-11T13:27:52.941Z,26.15
2018-06-11T13:32:48.371Z,25.10
2018-06-11T13:37:45.257Z,24.92
2018-06-11T13:42:41.453Z,24.05
2018-06-11T13:47:36.488Z,23.44
2018-06-11T13:52:31.919Z,23.09
2018-06-11T13:57:28.647Z,23.03
2018-06-11T14:02:24.089Z,23.20
2018-06-11T14:07:18.713Z,22.80
2018-06-11T14:12:14.579Z,22.98
2018-06-11T14:17:11.454Z,23.05
2018-06-11T14:22:08.131Z,22.83
2018-06-11T14:27:04.661Z,22.98
2018-06-11T14:32:01.394Z,23.17
2018-06-11T14:36:57.336Z,23.24
2018-06-11T14:41:54.411Z,23.25
2018-06-11T14:46:50.218Z,23.50
2018-06-11T14:51:47.458Z,23.62
2018-06-11T14:56:44.120Z,23.15
2018-06-11T15:01:40.853Z,23.23
2018-06-11T15:06:36.559Z,23.23
2018-06-11T15:11:33.655Z,23.25
2018-06-11T15:16:30.457Z,23.63
2018-06-11T15:26:29.870Z,23.34
2018-06-11T15:31:26.799Z,23.61
2018-06-11T15:36:22.472Z,23.46
2018-06-11T15:41:18.557Z,23.48
2018-06-11T15:46:16.044Z,23.47
2018-06-11T15:51:12.663Z,23.48
2018-06-11T15:56:09.213Z,22.88
2018-06-11T16:01:05.639Z,23.02
2018-06-11T16:06:01.298Z,23.03
2018-06-11T16:10:58.582Z,22.83
2018-06-11T16:15:54.253Z,22.78
2018-06-11T16:20:49.910Z,23.05
2018-06-11T16:25:47.347Z,23.13
2018-06-11T16:30:47.228Z,23.05
2018-06-11T16:35:46.520Z,22.83
2018-06-11T16:40:41.908Z,22.83
2018-06-11T16:45:37.751Z,22.60
2018-06-11T16:50:33.655Z,22.80
2018-06-11T16:55:30.533Z,22.78
2018-06-11T17:00:26.847Z,22.69
2018-06-11T17:05:23.346Z,22.78
2018-06-11T17:10:19.144Z,22.57
2018-06-11T17:15:14.878Z,22.55
2018-06-11T17:20:10.753Z,22.20
2018-06-11T17:25:06.495Z,22.17
2018-06-11T17:30:02.261Z,22.10
2018-06-11T17:34:58.114Z,21.99
2018-06-11T17:39:53.978Z,22.11
2018-06-11T17:44:49.862Z,22.02
2018-06-11T17:49:45.705Z,21.91
2018-06-11T17:54:42.675Z,21.87
2018-06-11T17:59:38.465Z,22.02
2018-06-11T18:04:35.385Z,21.89
2018-06-11T18:09:32.318Z,21.80
2018-06-11T18:14:27.687Z,21.72
2018-06-11T18:19:23.931Z,21.75
2018-06-11T18:24:24.907Z,21.72
2018-06-11T18:29:24.650Z,21.69
2018-06-11T18:34:19.433Z,21.48
2018-06-11T18:39:15.376Z,21.37
2018-06-11T18:44:11.665Z,21.18
2018-06-11T18:49:07.653Z,21.09
2018-06-11T18:54:03.484Z,20.92
2018-06-11T18:58:59.152Z,21.02
2018-06-11T19:03:55.100Z,20.88
2018-06-11T19:08:52.064Z,20.81
2018-06-11T19:13:48.614Z,20.78
2018-06-11T19:18:44.261Z,20.72
2018-06-11T19:23:42.323Z,20.66
2018-06-11T19:28:43.180Z,20.51
2018-06-11T19:33:38.941Z,20.50
2018-06-11T19:38:38.636Z,20.44
2018-06-11T19:43:33.468Z,20.41
2018-06-11T19:48:30.310Z,20.39
2018-06-11T19:53:26.197Z,20.39
2018-06-11T19:58:22.043Z,20.39
2018-06-11T20:03:19.331Z,20.28
2018-06-11T20:08:14.881Z,20.25
2018-06-11T20:13:10.484Z,20.31
2018-06-11T20:18:07.466Z,20.29
2018-06-11T20:23:02.942Z,20.14
2018-06-11T20:27:59.897Z,20.00
2018-06-11T20:32:56.673Z,20.00
2018-06-11T20:37:53.310Z,19.82
2018-06-11T20:42:48.710Z,19.58
2018-06-11T20:47:44.569Z,19.29
2018-06-11T20:52:40.472Z,19.14
2018-06-11T20:57:36.147Z,19.11
2018-06-11T21:02:31.691Z,19.00
2018-06-11T21:07:27.226Z,18.80
2018-06-11T21:12:23.225Z,18.77
2018-06-11T21:17:21.108Z,18.62
2018-06-11T21:22:16.663Z,18.52
2018-06-11T21:27:12.350Z,18.26
2018-06-11T21:32:08.172Z,18.18
2018-06-11T21:37:03.871Z,18.11
2018-06-11T21:42:00.567Z,17.97
2018-06-11T21:46:56.095Z,17.82
2018-06-11T21:51:51.915Z,17.57
2018-06-11T21:56:47.822Z,17.45
2018-06-11T22:01:43.639Z,17.45
2018-06-11T22:06:39.515Z,17.34
2018-06-11T22:11:35.317Z,17.12
2018-06-11T22:16:32.262Z,17.09
2018-06-11T22:21:28.330Z,17.20
2018-06-11T22:26:24.045Z,17.02
2018-06-11T22:31:20.006Z,16.99
2018-06-11T22:36:15.632Z,16.90
2018-06-11T22:41:12.948Z,16.66
2018-06-11T22:46:08.328Z,16.61
2018-06-11T22:51:04.388Z,16.65
2018-06-11T22:56:00.483Z,16.64
2018-06-11T23:00:56.208Z,16.60
2018-06-11T23:05:52.159Z,16.43
2018-06-11T23:10:48.435Z,16.42
2018-06-11T23:15:44.801Z,16.54
2018-06-11T23:20:40.599Z,16.29
2018-06-11T23:25:38.015Z,16.32
2018-06-11T23:30:33.410Z,16.29
2018-06-11T23:35:29.601Z,16.28
2018-06-11T23:40:25.493Z,16.05
2018-06-11T23:45:21.239Z,16.21
2018-06-11T23:50:18.422Z,16.09
2018-06-11T23:55:14.127Z,16.13
